メインページ
METAR-TAF:

METAR-TAF

空港 :

キーシュ国際空港

キーシュ島, イラン

緯度: 26-31-36N, 経度: 053-58-54E, 海抜: 30m

現時点の気象観測

当レポートは40分前の06:00(UTC)に作成
北東の風 4kt
気温 30°C
湿度 49%
気圧 1014 hPa
視程: 7000m

METAR: OIBK 040600Z 04004KT 7000 NSC 30/18 Q1014 NOSIG

時間: 11:10 (06:40 UTC)

予報

当レポートは1時間10分前の05:30(UTC)に作成
予報は04日の 06時(UTC)から 05日の 12時(UTC)まで有効
北/北東の風 6kt
視程: 7000m
05日の 00時(UTC)から 05日の 04時(UTC)まで一時的に
視程: 3000m
05日の 09時(UTC)から 05日の 12時(UTC)まで一時的に
西の風 20kt、最大24ktの突風を伴う
視程: 3000m

TAF: OIBK 040530Z 0406/0512 03006KT 7000 NSC TEMPO 0500/0504 3000 HZ/BR TEMPO 0509/0512 27020G24KT 3000 SA NSC

4,000以上の空港の気象観測と天気予報(METAR報とTAF報)

利用可能な観測所は地図上に黄色い丸と赤い丸で示す。

丸の上にカーソルを重ねると観測所名を参照できる。

次にクリックすると気象観測と天気予報を参照できる。

マップの切り替え:黒色「×」印の緑ボタンをクリックして拡大、「-」印の緑ボタンをクリックして縮小、緑色の三角印をクリックして隣りの地図に切り替え


METAR-TAF: